Atmospheric History
02/08/2018 18:23  to  2/9/2018 18:23
Change End Date:
To complete the export process:
1) Select all of the data below
2) Copy the data to the clipboard
3) Open a word processor such as Notepad
4) Paste the data into the word processor
5) Save the file

Date/Time (MDT), AirTemp, RH, Dewpoint ,AvgWindSpeed, GustWindSpeed, WindDirection, PrecipType, PrecipIntensity, PrecipAccumulation, PrecipRate
02/09/2018 18:20, -7, 74, -13 ,0, 3, NW, None, None, ,  
02/09/2018 18:19, -7, 74, -13 ,0, 3, N, None, None, ,  
02/09/2018 18:10, -7, 74, -13 ,1, 2, N, None, None, ,  
02/09/2018 18:04, -7, 74, -13 ,2, 2, NE, None, None, ,  
02/09/2018 18:00, -7, 74, -13 ,1, 2, N, None, None, ,  
02/09/2018 17:50, -7, 74, -13 ,1, 2, N, None, None, ,  
02/09/2018 17:49, -7, 74, -13 ,1, 2, NE, None, None, ,  
02/09/2018 17:40, -7, 74, -14 ,0, 2, N, None, None, ,  
02/09/2018 17:34, -7, 74, -13 ,0, 2, NW, None, None, ,  
02/09/2018 17:30, -7, 74, -13 ,1, 2, N, None, None, ,  
02/09/2018 17:20, -4, 74, -10 ,3, 4, SW, None, None, ,  
02/09/2018 17:19, -4, 74, -10 ,3, 4, SW, None, None, ,  
02/09/2018 17:10, -4, 74, -10 ,3, 5, W, None, None, ,  
02/09/2018 17:04, -5, 73, -11 ,3, 4, W, None, None, ,  
02/09/2018 16:59, -5, 73, -11 ,2, 4, NW, None, None, ,  
02/09/2018 16:49, -3, 72, -10 ,2, 4, NW, None, None, ,  
02/09/2018 16:49, -3, 72, -10 ,2, 4, NW, None, None, ,  
02/09/2018 16:39, -2, 73, -9 ,2, 4, W, None, None, ,  
02/09/2018 16:34, -3, 72, -10 ,3, 4, W, None, None, ,  
02/09/2018 16:29, -3, 72, -10 ,3, 4, W, None, None, ,  
02/09/2018 16:19, -3, 72, -10 ,4, 5, W, None, None, ,  
02/09/2018 16:19, -3, 72, -10 ,4, 5, W, None, None, ,  
02/09/2018 16:09, -2, 71, -9 ,6, 6, W, None, None, ,  
02/09/2018 16:04, -2, 71, -9 ,6, 6, W, None, None, ,  
02/09/2018 15:59, -2, 71, -9 ,6, 7, W, None, None, ,  
02/09/2018 15:49, -1, 70, -8 ,6, 6, W, None, None, ,  
02/09/2018 15:49, -1, 70, -8 ,6, 6, W, None, None, ,  
02/09/2018 15:39, 0, 70, -8 ,5, 6, W, None, None, ,  
02/09/2018 15:34, 0, 70, -7 ,4, 6, W, None, None, ,  
02/09/2018 15:29, 0, 70, -8 ,6, 6, NW, None, None, ,  
02/09/2018 15:19, 1, 70, -7 ,4, 6, NW, None, None, ,  
02/09/2018 15:19, 1, 70, -7 ,4, 6, NW, None, None, ,  
02/09/2018 15:09, -1, 69, -8 ,4, 6, NW, None, None, ,  
02/09/2018 15:04, 0, 69, -8 ,4, 5, NW, None, None, ,  
02/09/2018 14:59, 0, 69, -8 ,4, 4, NW, None, None, ,  
02/09/2018 14:49, 0, 68, -8 ,3, 4, NW, None, None, ,  
02/09/2018 14:49, 0, 68, -8 ,3, 4, NW, None, None, ,  
02/09/2018 14:39, 1, 69, -7 ,4, 4, NW, None, None, ,  
02/09/2018 14:34, 1, 69, -6 ,4, 4, NW, None, None, ,  
02/09/2018 14:29, 1, 69, -7 ,4, 4, NW, None, None, ,  
02/09/2018 14:19, 1, 69, -7 ,4, 6, NW, None, None, ,  
02/09/2018 14:18, 0, 69, -7 ,4, 6, NW, None, None, ,  
02/09/2018 14:08, 0, 68, -8 ,4, 5, N, None, None, ,  
02/09/2018 14:04, 0, 67, -8 ,3, 4, NW, None, None, ,  
02/09/2018 13:58, 1, 67, -7 ,4, 4, NW, None, None, ,  
02/09/2018 13:49, 1, 67, -7 ,2, 4, NW, None, None, ,  
02/09/2018 13:48, 1, 67, -7 ,2, 4, NW, None, None, ,  
02/09/2018 13:38, 1, 67, -8 ,3, 4, NW, None, None, ,  
02/09/2018 13:34, 1, 67, -8 ,3, 4, NW, None, None, ,  
02/09/2018 13:28, 0, 66, -8 ,3, 4, N, None, None, ,  
02/09/2018 13:19, 1, 64, -8 ,3, 4, N, None, None, ,  
02/09/2018 13:18, 1, 64, -8 ,3, 4, NW, None, None, ,  
02/09/2018 13:08, 3, 64, -6 ,2, 2, NW, None, None, ,  
02/09/2018 13:04, 3, 65, -6 ,1, 3, NW, None, None, ,  
02/09/2018 12:58, 3, 65, -6 ,2, 3, NW, None, None, ,  
02/09/2018 12:49, 3, 66, -6 ,1, 3, NW, None, None, ,  
02/09/2018 12:48, 2, 66, -6 ,1, 3, NW, None, None, ,  
02/09/2018 12:38, 1, 66, -7 ,1, 4, NW, None, None, ,  
02/09/2018 12:34, 1, 66, -8 ,3, 4, NW, None, None, ,  
02/09/2018 12:28, 1, 65, -8 ,3, 4, NW, None, None, ,  
02/09/2018 12:19, 2, 63, -7 ,2, 3, NW, None, None, ,  
02/09/2018 12:18, 2, 63, -7 ,2, 3, NW, None, None, ,  
02/09/2018 12:08, 5, 63, -4 ,1, 1, W, Yes, Heavy, ,  
02/09/2018 12:04, 5, 64, -4 ,0, 1, W, None, None, ,  
02/09/2018 11:58, 5, 67, -4 ,0, 1, W, None, None, ,  
02/09/2018 11:49, 2, 68, -6 ,0, 3, NW, None, None, ,  
02/09/2018 11:48, 1, 68, -6 ,1, 3, NW, None, None, ,  
02/09/2018 11:37, 1, 70, -7 ,2, 4, NW, None, None, ,  
02/09/2018 11:34, 1, 70, -7 ,3, 4, NW, None, None, ,  
02/09/2018 11:27, -1, 72, -7 ,1, 6, NW, None, None, ,  
02/09/2018 11:19, -2, 72, -9 ,5, 6, NW, None, None, ,  
02/09/2018 11:17, -2, 72, -9 ,5, 6, NW, None, None, ,  
02/09/2018 11:07, -1, 72, -8 ,4, 5, NW, None, None, ,  
02/09/2018 11:04, -2, 72, -9 ,4, 4, NW, None, None, ,  
02/09/2018 10:57, -1, 71, -8 ,4, 4, NW, None, None, ,  
02/09/2018 10:49, -1, 72, -8 ,2, 4, NW, None, None, ,  
02/09/2018 10:47, -1, 72, -8 ,3, 4, NW, None, None, ,  
02/09/2018 10:37, -1, 73, -8 ,1, 3, W, None, None, ,  
02/09/2018 10:34, -2, 73, -9 ,2, 3, NW, None, None, ,  
02/09/2018 10:27, -3, 73, -9 ,2, 4, NW, None, None, ,  
02/09/2018 10:19, -3, 74, -10 ,3, 4, N, None, None, ,  
02/09/2018 10:17, -3, 74, -10 ,3, 4, NW, None, None, ,  
02/09/2018 10:07, -3, 74, -9 ,2, 3, NW, None, None, ,  
02/09/2018 10:04, -3, 75, -9 ,2, 4, NW, None, None, ,  
02/09/2018 09:57, -3, 75, -9 ,3, 4, N, None, None, ,  
02/09/2018 09:49, -4, 75, -9 ,2, 4, NW, None, None, ,  
02/09/2018 09:47, -4, 75, -10 ,2, 4, N, None, None, ,  
02/09/2018 09:37, -4, 75, -10 ,1, 2, NW, None, None, ,  
02/09/2018 09:34, -4, 75, -10 ,1, 1, NW, None, None, ,  
02/09/2018 09:27, -4, 76, -10 ,1, 3, NW, None, None, ,  
02/09/2018 09:19, -4, 76, -10 ,2, 4, NW, None, None, ,  
02/09/2018 09:17, -4, 76, -10 ,2, 4, NW, None, None, ,  
02/09/2018 09:07, -4, 76, -10 ,1, 2, NW, None, None, ,  
02/09/2018 09:04, -4, 76, -10 ,1, 2, NW, None, None, ,  
02/09/2018 08:57, -4, 76, -10 ,2, 2, NW, None, None, ,  
02/09/2018 08:49, -4, 76, -9 ,1, 3, N, None, None, ,  
02/09/2018 08:46, -4, 76, -9 ,0, 3, SW, None, None, ,  
02/09/2018 08:36, -4, 76, -9 ,2, 4, W, None, None, ,  
02/09/2018 08:34, -4, 76, -9 ,1, 4, W, None, None, ,  
02/09/2018 08:26, -3, 76, -9 ,2, 5, NW, None, None, ,  
02/09/2018 08:19, -3, 76, -9 ,1, 3, N, None, None, ,  
02/09/2018 08:16, -3, 76, -9 ,1, 3, NW, None, None, ,  
02/09/2018 08:06, -3, 76, -9 ,2, 3, NW, None, None, ,  
02/09/2018 08:04, -3, 76, -9 ,2, 3, N, None, None, ,  
02/09/2018 07:56, -3, 76, -9 ,2, 5, N, None, None, ,  
02/09/2018 07:49, -4, 76, -10 ,4, 5, N, None, None, ,  
02/09/2018 07:46, -4, 76, -9 ,3, 4, N, Yes, Heavy, ,  
02/09/2018 07:36, -3, 76, -9 ,1, 2, N, Yes, Heavy, ,  
02/09/2018 07:34, -3, 76, -9 ,1, 2, N, Yes, Heavy, ,  
02/09/2018 07:26, -3, 76, -9 ,1, 3, NW, Yes, Heavy, ,  
02/09/2018 07:19, -4, 76, -9 ,2, 3, NW, Yes, Heavy, ,  
02/09/2018 07:16, -4, 76, -9 ,1, 3, NW, Yes, Heavy, ,  
02/09/2018 07:06, -4, 76, -10 ,1, 3, N, Yes, Heavy, ,  
02/09/2018 07:04, -4, 76, -10 ,1, 3, N, Yes, Heavy, ,  
02/09/2018 06:56, -5, 76, -10 ,1, 2, NW, Yes, Heavy, ,  
02/09/2018 06:49, -5, 76, -10 ,1, 1, NW, Yes, Heavy, ,  
02/09/2018 06:46, -5, 76, -10 ,0, 1, NW, Yes, Heavy, ,  
02/09/2018 06:36, -5, 76, -10 ,0, 1, SW, Yes, Heavy, ,  
02/09/2018 06:34, -5, 76, -10 ,0, 1, SW, Yes, Heavy, ,  
02/09/2018 06:26, -5, 76, -10 ,0, 1, SW, Yes, Heavy, ,  
02/09/2018 06:19, -5, 76, -10 ,0, 2, SW, Yes, Heavy, ,  
02/09/2018 06:16, -5, 76, -10 ,2, 3, SW, None, None, ,  
02/09/2018 06:05, -5, 76, -10 ,2, 3, W, Yes, Heavy, ,  
02/09/2018 06:04, -5, 76, -10 ,2, 3, W, None, None, ,  
02/09/2018 05:55, -5, 76, -10 ,2, 4, W, Yes, Heavy, ,  
02/09/2018 05:49, -4, 76, -10 ,3, 4, SW, Yes, Heavy, ,  
02/09/2018 05:45, -4, 76, -10 ,2, 4, SW, None, None, ,  
02/09/2018 05:35, -4, 76, -10 ,4, 6, SW, Yes, Heavy, ,  
02/09/2018 05:34, -4, 76, -10 ,4, 6, SW, None, None, ,  
02/09/2018 05:25, -3, 76, -9 ,3, 4, W, None, None, ,  
02/09/2018 05:19, -3, 76, -9 ,3, 4, W, None, None, ,  
02/09/2018 05:15, -3, 76, -9 ,3, 4, W, None, None, ,  
02/09/2018 05:05, -3, 76, -9 ,3, 4, NW, None, None, ,  
02/09/2018 05:04, -3, 76, -9 ,3, 4, NW, None, None, ,  
02/09/2018 04:55, -3, 76, -9 ,4, 4, NW, None, None, ,  
02/09/2018 04:49, -3, 76, -9 ,4, 4, NW, None, None, ,  
02/09/2018 04:45, -3, 76, -9 ,2, 3, NW, None, None, ,  
02/09/2018 04:35, -3, 76, -9 ,0, 2, NW, Yes, Heavy, ,  
02/09/2018 04:34, -3, 76, -9 ,0, 2, NW, Yes, Heavy, ,  
02/09/2018 04:25, -3, 76, -9 ,1, 2, NW, Yes, Heavy, ,  
02/09/2018 04:19, -3, 76, -9 ,1, 2, NW, Yes, Heavy, ,  
02/09/2018 04:15, -3, 76, -9 ,2, 2, NW, None, None, ,  
02/09/2018 04:05, -3, 76, -9 ,1, 1, NW, None, None, ,  
02/09/2018 04:04, -3, 76, -9 ,1, 1, NW, None, None, ,  
02/09/2018 03:55, -3, 76, -9 ,0, 1, N, Yes, Heavy, ,  
02/09/2018 03:49, -3, 76, -9 ,0, 1, N, Yes, Heavy, ,  
02/09/2018 03:45, -3, 76, -9 ,1, 1, NE, Yes, Heavy, ,  
02/09/2018 03:35, -4, 76, -9 ,0, 2, N, Yes, Heavy, ,  
02/09/2018 03:34, -3, 76, -9 ,0, 2, N, Yes, Heavy, ,  
02/09/2018 03:24, -3, 76, -9 ,2, 2, NW, None, None, ,  
02/09/2018 03:19, -3, 76, -9 ,0, 1, W, None, None, ,  
02/09/2018 03:14, -3, 76, -9 ,0, 1, S, Yes, Heavy, ,  
02/09/2018 03:04, -3, 76, -9 ,0, 2, NE, Yes, Heavy, ,  
02/09/2018 03:04, -3, 76, -9 ,0, 2, NE, Yes, Heavy, ,  
02/09/2018 02:54, -3, 76, -9 ,1, 2, E, Yes, Heavy, ,  
02/09/2018 02:49, -3, 76, -9 ,2, 2, SE, Yes, Heavy, ,  
02/09/2018 02:44, -3, 76, -9 ,1, 2, SE, Yes, Heavy, ,  
02/09/2018 02:34, -3, 76, -8 ,2, 4, SE, Yes, Heavy, ,  
02/09/2018 02:34, -3, 76, -8 ,2, 4, SE, None, None, ,  
02/09/2018 02:24, -3, 76, -8 ,4, 4, S, None, None, ,  
02/09/2018 02:19, -2, 76, -8 ,3, 4, S, None, None, ,  
02/09/2018 02:14, -2, 76, -8 ,2, 4, S, None, None, ,  
02/09/2018 02:04, -2, 76, -8 ,2, 3, SE, None, None, ,  
02/09/2018 02:04, -2, 76, -8 ,2, 3, SE, None, None, ,  
02/09/2018 01:54, -2, 76, -8 ,0, 3, E, Yes, Heavy, ,  
02/09/2018 01:49, -3, 76, -8 ,1, 4, E, Yes, Heavy, ,  
02/09/2018 01:44, -2, 76, -8 ,2, 4, E, Yes, Heavy, ,  
02/09/2018 01:34, -3, 76, -9 ,1, 2, SE, Yes, Heavy, ,  
02/09/2018 01:34, -3, 76, -9 ,1, 2, SE, Yes, Heavy, ,  
02/09/2018 01:24, -3, 76, -9 ,2, 6, NW, None, None, ,  
02/09/2018 01:19, -3, 76, -9 ,4, 7, NW, None, None, ,  
02/09/2018 01:14, -3, 76, -9 ,6, 7, N, None, None, ,  
02/09/2018 01:04, -3, 76, -9 ,7, 7, NW, None, None, ,  
02/09/2018 01:04, -3, 76, -9 ,7, 7, NW, None, None, ,  
02/09/2018 00:54, -4, 76, -9 ,6, 7, NW, None, None, ,  
02/09/2018 00:49, -3, 76, -9 ,5, 7, NW, None, None, ,  
02/09/2018 00:44, -3, 76, -9 ,6, 7, NW, None, None, ,  
02/09/2018 00:34, -3, 76, -8 ,7, 9, NW, None, None, ,  
02/09/2018 00:33, -3, 76, -8 ,7, 9, NW, None, None, ,  
02/09/2018 00:23, -3, 76, -8 ,8, 9, NW, None, None, ,  
02/09/2018 00:19, -3, 76, -8 ,8, 9, NW, None, None, ,  
02/09/2018 00:13, -3, 76, -8 ,6, 8, NW, None, None, ,  
02/09/2018 00:04, -3, 76, -9 ,8, 9, N, None, None, ,  
02/09/2018 00:03, -3, 76, -9 ,8, 9, N, None, None, ,  
02/08/2018 23:53, -4, 76, -10 ,9, 10, N, None, None, ,  
02/08/2018 23:49, -5, 76, -10 ,9, 9, N, None, None, ,  
02/08/2018 23:43, -5, 76, -10 ,7, 9, N, None, None, ,  
02/08/2018 23:34, -4, 76, -10 ,0, 3, SE, None, None, ,  
02/08/2018 23:33, -5, 76, -10 ,1, 3, SE, None, None, ,  
02/08/2018 23:23, -4, 76, -10 ,2, 4, SE, None, None, ,  
02/08/2018 23:19, -4, 76, -10 ,2, 4, E, None, None, ,  
02/08/2018 23:13, -4, 76, -10 ,3, 5, E, None, None, ,  
02/08/2018 23:04, -5, 76, -11 ,2, 4, SE, None, None, ,  
02/08/2018 23:03, -5, 76, -11 ,2, 4, SE, None, None, ,  
02/08/2018 22:53, -4, 76, -10 ,4, 6, SE, None, None, ,  
02/08/2018 22:49, -4, 76, -9 ,6, 7, SE, None, None, ,  
02/08/2018 22:43, -3, 76, -9 ,6, 9, SE, None, None, ,  
02/08/2018 22:34, -3, 76, -9 ,7, 9, SE, None, None, ,  
02/08/2018 22:33, -3, 76, -9 ,7, 9, SE, None, None, ,  
02/08/2018 22:23, -2, 76, -8 ,7, 7, SE, None, None, ,  
02/08/2018 22:19, -2, 76, -8 ,6, 7, SE, None, None, ,  
02/08/2018 22:13, -2, 76, -8 ,6, 6, SE, None, None, ,  
02/08/2018 22:04, -2, 76, -8 ,3, 4, SE, None, None, ,  
02/08/2018 22:03, -2, 76, -8 ,2, 3, SE, None, None, ,  
02/08/2018 21:52, -2, 75, -8 ,1, 2, SE, None, None, ,  
02/08/2018 21:49, -2, 75, -8 ,2, 2, E, None, None, ,  
02/08/2018 21:42, -2, 75, -8 ,0, 2, SE, None, None, ,  
02/08/2018 21:34, -3, 75, -9 ,1, 3, NW, None, None, ,  
02/08/2018 21:32, -3, 75, -9 ,1, 4, N, None, None, ,  
02/08/2018 21:22, -2, 75, -8 ,5, 7, N, None, None, ,  
02/08/2018 21:19, -2, 75, -8 ,6, 7, N, None, None, ,  
02/08/2018 21:12, -1, 75, -7 ,1, 5, E, None, None, ,  
02/08/2018 21:04, 0, 75, -6 ,4, 5, E, Yes, Heavy, ,  
02/08/2018 21:02, 0, 75, -6 ,3, 5, E, Yes, Heavy, ,  
02/08/2018 20:52, 0, 75, -6 ,4, 7, E, Yes, Heavy, ,  
02/08/2018 20:49, 0, 75, -6 ,6, 7, SE, None, None, ,  
02/08/2018 20:42, 0, 75, -6 ,7, 9, E, Yes, Heavy, ,  
02/08/2018 20:34, -1, 75, -7 ,7, 8, E, None, None, ,  
02/08/2018 20:32, -1, 75, -7 ,4, 8, E, None, None, ,  
02/08/2018 20:22, -2, 75, -8 ,7, 9, N, None, None, ,  
02/08/2018 20:19, -2, 75, -8 ,7, 9, N, None, None, ,  
02/08/2018 20:12, -2, 75, -8 ,6, 7, N, None, None, ,  
02/08/2018 20:04, -2, 75, -7 ,3, 7, N, None, None, ,  
02/08/2018 20:02, -1, 75, -7 ,4, 7, N, None, None, ,  
02/08/2018 19:52, -1, 75, -7 ,6, 8, N, None, None, ,  
02/08/2018 19:49, -1, 75, -6 ,4, 7, NW, None, None, ,  
02/08/2018 19:42, 0, 75, -6 ,4, 6, N, None, None, ,  
02/08/2018 19:34, 0, 75, -6 ,4, 9, N, None, None, ,  
02/08/2018 19:32, 0, 75, -6 ,6, 9, NW, None, None, ,  
02/08/2018 19:22, 1, 74, -6 ,6, 7, NW, None, None, ,  
02/08/2018 19:19, 1, 74, -6 ,4, 8, NW, Yes, Heavy, ,  
02/08/2018 19:12, 0, 74, -6 ,5, 9, N, None, None, ,  
02/08/2018 19:04, 1, 74, -6 ,7, 7, N, None, None, ,  
02/08/2018 19:01, 1, 74, -5 ,6, 7, N, None, None, ,  
02/08/2018 18:51, 1, 74, -6 ,6, 7, N, None, None, ,  
02/08/2018 18:49, 1, 74, -6 ,6, 7, N, None, None, ,  
02/08/2018 18:41, 1, 74, -6 ,7, 9, N, Yes, Heavy, ,  
02/08/2018 18:34, 1, 74, -6 ,7, 12, N, Yes, Heavy, ,  
02/08/2018 18:31, 1, 74, -6 ,9, 12, N, None, None, ,  
Change End Date:

Copyright © 1998-2015 Vaisala, Inc.
All Rights Reserved
Send comments about the data to:
SCAN Web ® is a registered trademark of Vaisala, Inc.
SCAN Web Version 6.0